createdAt,value
2022-09-07T00:00:09.404Z,9.85
2022-09-07T00:00:41.500Z,11.60
2022-09-07T00:01:13.120Z,11.70
2022-09-07T00:01:45.055Z,10.68
2022-09-07T00:02:16.604Z,11.40
2022-09-07T00:02:48.170Z,11.18
2022-09-07T00:03:20.344Z,11.30
2022-09-07T00:03:56.051Z,11.77
2022-09-07T00:04:28.564Z,11.68
2022-09-07T00:05:00.402Z,11.50
2022-09-07T00:05:32.303Z,12.65
2022-09-07T00:06:11.397Z,12.05
2022-09-07T00:06:42.946Z,10.32
2022-09-07T00:07:14.668Z,13.25
2022-09-07T00:07:46.208Z,11.40
2022-09-07T00:08:20.265Z,10.43
2022-09-07T00:08:51.907Z,12.15
2022-09-07T00:09:23.425Z,12.18
2022-09-07T00:09:55.031Z,12.57
2022-09-07T00:10:26.636Z,11.80
2022-09-07T00:11:00.687Z,12.27
2022-09-07T00:11:32.237Z,12.52
2022-09-07T00:12:04.040Z,13.20
2022-09-07T00:12:35.705Z,12.10
2022-09-07T00:13:07.939Z,12.27
2022-09-07T00:13:40.990Z,12.25
2022-09-07T00:14:12.927Z,11.27
2022-09-07T00:14:44.652Z,12.30
2022-09-07T00:15:16.280Z,11.98
2022-09-07T00:15:47.896Z,12.88
2022-09-07T00:16:23.413Z,13.02
2022-09-07T00:16:55.059Z,12.52
2022-09-07T00:17:26.714Z,11.52
2022-09-07T00:17:59.352Z,13.15
2022-09-07T00:18:31.645Z,12.07
2022-09-07T00:19:04.659Z,12.07
2022-09-07T00:19:36.384Z,12.07
2022-09-07T00:20:09.330Z,12.63
2022-09-07T00:20:40.868Z,12.00
2022-09-07T00:21:12.908Z,12.15
2022-09-07T00:21:45.344Z,12.38
2022-09-07T00:22:16.920Z,12.27
2022-09-07T00:22:48.534Z,12.85
2022-09-07T00:23:20.083Z,12.20
2022-09-07T00:23:52.217Z,12.85
2022-09-07T00:24:23.906Z,12.18
2022-09-07T00:24:55.456Z,12.63
2022-09-07T00:25:27.052Z,12.07
2022-09-07T00:26:05.225Z,12.93
2022-09-07T00:26:36.828Z,13.20
2022-09-07T00:27:08.436Z,14.25
2022-09-07T00:27:40.553Z,13.30
2022-09-07T00:28:12.200Z,14.52
2022-09-07T00:28:44.015Z,12.95
2022-09-07T00:29:15.554Z,13.05
2022-09-07T00:29:47.414Z,13.75
2022-09-07T00:30:19.040Z,12.52
2022-09-07T00:30:50.586Z,13.65
2022-09-07T00:31:23.602Z,12.80
2022-09-07T00:31:55.269Z,13.77
2022-09-07T00:32:26.872Z,12.70
2022-09-07T00:32:58.476Z,13.55
2022-09-07T00:33:30.811Z,12.38
2022-09-07T00:34:03.660Z,12.45
2022-09-07T00:34:35.213Z,13.27
2022-09-07T00:35:06.979Z,12.35
2022-09-07T00:35:42.125Z,12.30
2022-09-07T00:36:13.775Z,12.82
2022-09-07T00:36:45.758Z,13.98
2022-09-07T00:37:17.727Z,13.90
2022-09-07T00:37:49.301Z,14.10
2022-09-07T00:38:20.890Z,13.48
2022-09-07T00:38:52.714Z,14.32
2022-09-07T00:39:24.377Z,13.50
2022-09-07T00:39:56.045Z,14.00
2022-09-07T00:40:27.630Z,14.05
2022-09-07T00:40:59.365Z,13.23
2022-09-07T00:41:31.256Z,13.52
2022-09-07T00:42:03.735Z,13.98
2022-09-07T00:42:35.488Z,13.52
2022-09-07T00:43:07.416Z,14.38
2022-09-07T00:43:41.526Z,13.88
2022-09-07T00:44:43.955Z,13.35
2022-09-07T00:45:18.085Z,12.75
2022-09-07T00:45:49.616Z,13.90
2022-09-07T00:46:27.197Z,14.35
2022-09-07T00:46:59.003Z,15.52
2022-09-07T00:47:44.556Z,12.82
2022-09-07T00:48:18.480Z,14.07
2022-09-07T00:48:55.960Z,13.45
2022-09-07T00:49:27.512Z,14.13
2022-09-07T00:50:11.216Z,14.05
2022-09-07T00:50:47.311Z,14.02
2022-09-07T00:51:26.727Z,13.18
2022-09-07T00:52:00.650Z,15.73
2022-09-07T00:52:33.496Z,13.85
2022-09-07T00:53:09.286Z,14.60
2022-09-07T00:53:53.750Z,13.55
2022-09-07T00:54:30.365Z,13.45
2022-09-07T00:55:06.644Z,14.77
2022-09-07T00:55:41.146Z,13.68
2022-09-07T00:56:12.844Z,13.90
2022-09-07T00:56:45.432Z,14.73
2022-09-07T00:57:17.067Z,13.70
2022-09-07T00:57:52.149Z,13.75
2022-09-07T00:58:23.934Z,14.95
2022-09-07T00:58:55.761Z,14.77
2022-09-07T00:59:31.368Z,13.23
2022-09-07T01:00:04.848Z,13.98
2022-09-07T01:00:36.651Z,14.23
2022-09-07T01:01:08.461Z,14.02
2022-09-07T01:01:40.407Z,14.43
2022-09-07T01:02:13.209Z,14.60
2022-09-07T01:02:46.212Z,13.45
2022-09-07T01:03:23.441Z,13.38
2022-09-07T01:03:56.799Z,14.05
2022-09-07T01:04:30.116Z,14.20
2022-09-07T01:05:09.652Z,12.98
2022-09-07T01:05:48.178Z,14.32
2022-09-07T01:06:22.869Z,14.15
2022-09-07T01:06:55.298Z,12.88
2022-09-07T01:07:26.810Z,12.35
2022-09-07T01:07:58.689Z,14.35
2022-09-07T01:08:30.531Z,14.13
2022-09-07T01:09:22.913Z,13.93
2022-09-07T01:09:55.776Z,14.07
2022-09-07T01:10:33.440Z,14.35
2022-09-07T01:11:05.202Z,14.60
2022-09-07T01:11:37.545Z,13.10
2022-09-07T01:12:09.264Z,15.38
2022-09-07T01:12:40.836Z,13.48
2022-09-07T01:13:12.427Z,15.13
2022-09-07T01:13:45.303Z,13.95
2022-09-07T01:14:23.545Z,14.68
2022-09-07T01:14:55.953Z,14.10
2022-09-07T01:15:39.952Z,14.13
2022-09-07T01:16:38.936Z,12.60
2022-09-07T01:17:19.136Z,13.77
2022-09-07T01:17:50.604Z,14.95
2022-09-07T01:18:33.397Z,14.48
2022-09-07T01:19:13.669Z,14.65
2022-09-07T01:19:55.889Z,15.60
2022-09-07T01:20:50.433Z,13.23
2022-09-07T01:21:25.569Z,15.20
2022-09-07T01:22:18.360Z,13.75
2022-09-07T01:23:01.954Z,14.23
2022-09-07T01:23:45.604Z,13.93
2022-09-07T01:24:46.685Z,12.85
2022-09-07T01:25:39.956Z,14.15
2022-09-07T01:26:23.104Z,13.13
2022-09-07T01:27:25.287Z,13.73
2022-09-07T01:28:14.073Z,13.27
2022-09-07T01:28:49.595Z,13.50
2022-09-07T01:29:30.021Z,14.65
2022-09-07T01:30:03.275Z,14.20
2022-09-07T01:30:39.464Z,14.35
2022-09-07T01:31:25.772Z,14.52
2022-09-07T01:32:09.292Z,13.48
2022-09-07T01:32:59.002Z,14.45
2022-09-07T01:33:47.751Z,14.75
2022-09-07T01:34:25.403Z,15.10
2022-09-07T01:34:57.041Z,14.82
2022-09-07T01:35:55.634Z,14.18
2022-09-07T01:36:55.859Z,14.88
2022-09-07T01:37:32.252Z,13.77
2022-09-07T01:38:35.807Z,15.65
2022-09-07T01:39:08.229Z,14.63
2022-09-07T01:39:57.256Z,14.73
2022-09-07T01:40:42.393Z,13.98
2022-09-07T01:41:23.439Z,14.25
2022-09-07T01:41:58.827Z,14.27
2022-09-07T01:42:38.578Z,14.40
2022-09-07T01:43:13.589Z,13.30
2022-09-07T01:44:00.498Z,13.63
2022-09-07T01:44:39.806Z,14.27
2022-09-07T01:45:13.984Z,14.40
2022-09-07T01:45:45.847Z,14.25
2022-09-07T01:46:21.939Z,13.52
2022-09-07T01:47:07.698Z,13.75
2022-09-07T01:47:42.835Z,14.13
2022-09-07T01:48:16.668Z,13.10
2022-09-07T01:48:50.756Z,14.20
2022-09-07T01:49:29.599Z,14.02
2022-09-07T01:50:21.626Z,12.88
2022-09-07T01:50:59.287Z,13.93
2022-09-07T01:51:33.374Z,14.27
2022-09-07T01:52:18.762Z,14.13
2022-09-07T01:53:00.877Z,12.82
2022-09-07T01:53:39.804Z,12.77
2022-09-07T01:54:17.040Z,12.98
2022-09-07T01:54:52.681Z,13.45
2022-09-07T01:55:26.977Z,13.57
2022-09-07T01:56:05.627Z,14.30
2022-09-07T01:56:41.828Z,13.15
2022-09-07T01:57:19.022Z,13.70
2022-09-07T01:58:27.252Z,12.77
2022-09-07T01:59:04.995Z,12.43
2022-09-07T01:59:44.022Z,12.90
2022-09-07T02:00:18.718Z,13.52
2022-09-07T02:01:04.687Z,12.48
2022-09-07T02:01:52.623Z,12.70
2022-09-07T02:02:29.688Z,13.30
2022-09-07T02:03:41.549Z,13.45
2022-09-07T02:04:18.553Z,13.05
2022-09-07T02:05:02.108Z,14.30
2022-09-07T02:05:47.019Z,13.43
2022-09-07T02:06:27.231Z,13.57
2022-09-07T02:07:01.423Z,14.00
2022-09-07T02:07:43.209Z,15.23
2022-09-07T02:08:41.175Z,15.68
2022-09-07T02:09:58.320Z,14.65
2022-09-07T02:10:40.497Z,16.08
2022-09-07T02:11:19.597Z,16.13
2022-09-07T02:11:51.585Z,15.55
2022-09-07T02:12:48.199Z,15.15
2022-09-07T02:13:19.704Z,14.27
2022-09-07T02:14:04.060Z,15.38
2022-09-07T02:14:38.694Z,14.57
2022-09-07T02:15:16.342Z,14.82
2022-09-07T02:16:18.845Z,14.93
2022-09-07T02:17:00.784Z,13.85
2022-09-07T02:17:34.673Z,16.70
2022-09-07T02:18:07.794Z,14.75
2022-09-07T02:18:45.106Z,15.05
2022-09-07T02:19:19.240Z,14.77
2022-09-07T02:19:54.294Z,16.83
2022-09-07T02:20:31.027Z,14.77
2022-09-07T02:21:03.365Z,15.68
2022-09-07T02:21:38.541Z,15.85
2022-09-07T02:22:15.227Z,14.77
2022-09-07T02:22:49.907Z,14.90
2022-09-07T02:23:34.391Z,14.40
2022-09-07T02:24:12.900Z,15.02
2022-09-07T02:24:49.884Z,14.80
2022-09-07T02:25:23.931Z,16.13
2022-09-07T02:26:04.457Z,15.45
2022-09-07T02:26:39.410Z,16.63
2022-09-07T02:27:19.044Z,14.77
2022-09-07T02:27:55.434Z,16.13
2022-09-07T02:28:33.302Z,16.25
2022-09-07T02:29:05.376Z,18.17
2022-09-07T02:29:38.138Z,15.15
2022-09-07T02:30:10.502Z,16.45
2022-09-07T02:30:42.533Z,16.30
2022-09-07T02:31:14.507Z,16.08
2022-09-07T02:31:47.329Z,15.63
2022-09-07T02:32:19.104Z,15.13
2022-09-07T02:32:50.990Z,15.18
2022-09-07T02:33:23.324Z,15.40
2022-09-07T02:33:55.197Z,16.00
2022-09-07T02:34:26.896Z,15.60
2022-09-07T02:34:58.416Z,15.65
2022-09-07T02:35:30.092Z,15.57
2022-09-07T02:36:02.392Z,14.77
2022-09-07T02:36:39.463Z,15.70
2022-09-07T02:37:11.180Z,15.52
2022-09-07T02:37:43.767Z,15.88
2022-09-07T02:38:15.653Z,15.60
2022-09-07T02:38:47.167Z,14.55
2022-09-07T02:39:18.796Z,14.05
2022-09-07T02:39:50.674Z,15.02
2022-09-07T02:40:22.505Z,14.73
2022-09-07T02:40:57.529Z,16.25
2022-09-07T02:41:38.410Z,15.25
2022-09-07T02:42:48.096Z,15.90
2022-09-07T02:43:20.818Z,13.57
2022-09-07T02:43:52.369Z,14.25
2022-09-07T02:44:27.652Z,14.35
2022-09-07T02:45:00.170Z,15.57
2022-09-07T02:45:58.258Z,14.27
2022-09-07T02:46:45.068Z,14.07
2022-09-07T02:47:36.995Z,15.63
2022-09-07T02:48:15.802Z,14.98
2022-09-07T02:48:51.336Z,13.50
2022-09-07T02:49:44.492Z,13.80
2022-09-07T02:50:29.366Z,13.75
2022-09-07T02:51:25.349Z,15.77
2022-09-07T02:52:20.461Z,14.80
2022-09-07T02:52:57.994Z,14.93
2022-09-07T02:53:36.459Z,14.65
2022-09-07T02:54:44.948Z,15.90
2022-09-07T02:56:24.702Z,13.82
2022-09-07T02:57:18.457Z,13.43
2022-09-07T02:58:05.031Z,13.13
2022-09-07T02:58:50.593Z,12.52
2022-09-07T02:59:45.148Z,13.23
2022-09-07T03:00:20.891Z,13.63
2022-09-07T03:01:14.430Z,13.23
2022-09-07T03:01:46.084Z,12.48
2022-09-07T03:02:30.998Z,12.60
2022-09-07T03:03:18.080Z,13.57
2022-09-07T03:04:10.993Z,14.25
2022-09-07T03:04:51.440Z,13.30
2022-09-07T03:05:46.051Z,13.18
2022-09-07T03:06:24.362Z,11.55
2022-09-07T03:07:03.389Z,13.20
2022-09-07T03:07:50.120Z,14.15
2022-09-07T03:08:25.334Z,13.65
2022-09-07T03:08:59.145Z,13.50
2022-09-07T03:09:35.363Z,13.30
2022-09-07T03:10:07.980Z,13.52
2022-09-07T03:10:40.660Z,12.35
2022-09-07T03:11:13.173Z,13.55
2022-09-07T03:11:44.780Z,12.88
2022-09-07T03:12:16.760Z,14.15
2022-09-07T03:12:49.634Z,13.43
2022-09-07T03:13:24.468Z,12.80
2022-09-07T03:14:19.627Z,11.52
2022-09-07T03:14:51.181Z,13.20
2022-09-07T03:15:25.603Z,12.30
2022-09-07T03:15:57.713Z,11.70
2022-09-07T03:16:29.311Z,10.82
2022-09-07T03:17:01.537Z,12.60
2022-09-07T03:17:33.061Z,11.95
2022-09-07T03:18:04.829Z,13.20
2022-09-07T03:18:36.353Z,14.20
2022-09-07T03:19:08.066Z,12.60
2022-09-07T03:19:39.741Z,12.63
2022-09-07T03:20:11.490Z,13.18
2022-09-07T03:20:43.137Z,12.35
2022-09-07T03:21:14.688Z,12.95
2022-09-07T03:21:46.430Z,12.98
2022-09-07T03:22:17.963Z,11.02
2022-09-07T03:22:51.209Z,11.13
2022-09-07T03:23:23.016Z,11.68
2022-09-07T03:23:55.078Z,12.98
2022-09-07T03:24:26.630Z,13.45
2022-09-07T03:24:58.175Z,12.82
2022-09-07T03:25:29.725Z,12.85
2022-09-07T03:26:01.302Z,13.35
2022-09-07T03:26:33.045Z,13.52
2022-09-07T03:27:04.665Z,13.35
2022-09-07T03:27:36.244Z,12.30
2022-09-07T03:28:07.804Z,12.63
2022-09-07T03:28:39.462Z,11.90
2022-09-07T03:29:11.092Z,13.23
2022-09-07T03:29:42.682Z,13.50
2022-09-07T03:30:14.537Z,12.27
2022-09-07T03:30:47.487Z,13.48
2022-09-07T03:31:19.988Z,11.93
2022-09-07T03:31:51.574Z,12.50
2022-09-07T03:32:23.122Z,13.30
2022-09-07T03:32:54.692Z,11.77
2022-09-07T03:33:26.283Z,12.38
2022-09-07T03:33:57.985Z,11.00
2022-09-07T03:34:29.545Z,11.82
2022-09-07T03:35:02.104Z,12.52
2022-09-07T03:35:33.632Z,11.32
2022-09-07T03:36:06.433Z,12.45
2022-09-07T03:36:38.240Z,13.05
2022-09-07T03:37:09.830Z,13.55
2022-09-07T03:37:41.779Z,14.07
2022-09-07T03:38:13.356Z,12.32
2022-09-07T03:38:45.291Z,14.32
2022-09-07T03:39:20.773Z,12.70
2022-09-07T03:39:52.631Z,14.45
2022-09-07T03:40:24.233Z,13.00
2022-09-07T03:41:03.393Z,12.43
2022-09-07T03:41:34.953Z,12.65
2022-09-07T03:42:06.636Z,13.13
2022-09-07T03:42:38.762Z,13.02
2022-09-07T03:43:10.316Z,12.57
2022-09-07T03:43:42.172Z,12.75
2022-09-07T03:44:13.707Z,12.57
2022-09-07T03:44:45.311Z,12.80
2022-09-07T03:45:17.007Z,11.88
2022-09-07T03:45:48.529Z,11.32
2022-09-07T03:46:20.801Z,10.93
2022-09-07T03:46:52.386Z,12.38
2022-09-07T03:47:23.992Z,11.73
2022-09-07T03:47:55.644Z,12.45
2022-09-07T03:48:30.202Z,11.98
2022-09-07T03:49:01.992Z,12.50
2022-09-07T03:49:33.498Z,10.80
2022-09-07T03:50:05.968Z,10.85
2022-09-07T03:50:37.489Z,11.73
2022-09-07T03:51:10.926Z,11.23
2022-09-07T03:51:42.473Z,11.70
2022-09-07T03:52:14.036Z,11.10
2022-09-07T03:52:45.566Z,11.52
2022-09-07T03:53:17.075Z,9.75
2022-09-07T03:53:48.745Z,9.82
2022-09-07T03:54:20.280Z,11.35
2022-09-07T03:54:51.968Z,10.00
2022-09-07T03:55:23.564Z,13.05
2022-09-07T03:56:03.155Z,10.50
2022-09-07T03:56:34.857Z,11.13
2022-09-07T03:57:06.450Z,11.70
2022-09-07T03:57:37.945Z,10.52
2022-09-07T03:58:09.467Z,10.25
2022-09-07T03:58:41.119Z,9.95
2022-09-07T03:59:12.635Z,11.07
2022-09-07T03:59:44.190Z,9.98
2022-09-07T04:00:16.183Z,9.15
2022-09-07T04:00:47.702Z,9.18
2022-09-07T04:01:22.578Z,9.05
2022-09-07T04:01:54.170Z,9.43
2022-09-07T04:02:26.144Z,9.80
2022-09-07T04:02:57.769Z,9.98
2022-09-07T04:03:29.300Z,8.27
2022-09-07T04:04:02.868Z,8.13
2022-09-07T04:04:34.504Z,12.00
2022-09-07T04:05:06.306Z,9.88
2022-09-07T04:05:37.834Z,9.70
2022-09-07T04:06:09.908Z,10.32
2022-09-07T04:06:41.564Z,9.45
2022-09-07T04:07:14.138Z,9.38
2022-09-07T04:07:48.207Z,9.18
2022-09-07T04:08:19.759Z,11.18
2022-09-07T04:08:51.452Z,10.15
2022-09-07T04:09:22.965Z,9.45
2022-09-07T04:09:54.510Z,9.27
2022-09-07T04:10:26.038Z,8.38
2022-09-07T04:10:59.169Z,10.02
2022-09-07T04:11:31.636Z,9.52
2022-09-07T04:12:03.619Z,9.82
2022-09-07T04:12:35.156Z,8.93
2022-09-07T04:13:08.029Z,9.65
2022-09-07T04:13:39.910Z,10.32
2022-09-07T04:14:11.690Z,9.18
2022-09-07T04:14:43.568Z,9.38
2022-09-07T04:15:15.236Z,13.00
2022-09-07T04:15:49.908Z,10.05
2022-09-07T04:16:25.744Z,12.85
2022-09-07T04:16:57.469Z,9.00
2022-09-07T04:17:29.055Z,8.27
2022-09-07T04:18:01.000Z,8.68
2022-09-07T04:18:32.562Z,8.50
2022-09-07T04:19:04.541Z,8.32
2022-09-07T04:19:36.057Z,8.52
2022-09-07T04:20:08.199Z,9.43
2022-09-07T04:20:39.912Z,7.88
2022-09-07T04:21:11.828Z,8.55
2022-09-07T04:21:44.603Z,8.20
2022-09-07T04:22:16.159Z,9.05
2022-09-07T04:22:53.656Z,8.82
2022-09-07T04:23:25.840Z,11.30
2022-09-07T04:23:58.059Z,9.98
2022-09-07T04:24:29.684Z,10.38
2022-09-07T04:25:01.212Z,11.10
2022-09-07T04:25:32.988Z,11.60
2022-09-07T04:26:04.608Z,11.32
2022-09-07T04:26:37.104Z,11.90
2022-09-07T04:27:08.686Z,11.77
2022-09-07T04:27:40.209Z,12.13
2022-09-07T04:28:11.762Z,11.63
2022-09-07T04:28:43.429Z,11.95
2022-09-07T04:29:14.996Z,12.00
2022-09-07T04:29:47.447Z,12.45
2022-09-07T04:30:18.978Z,14.13
2022-09-07T04:30:50.641Z,13.25
2022-09-07T04:31:23.495Z,12.95
2022-09-07T04:31:55.092Z,12.98
2022-09-07T04:32:26.701Z,14.13
2022-09-07T04:32:58.205Z,13.85
2022-09-07T04:33:33.236Z,13.45
2022-09-07T04:34:06.405Z,13.20
2022-09-07T04:34:38.004Z,14.10
2022-09-07T04:35:10.162Z,13.32
2022-09-07T04:35:42.531Z,13.98
2022-09-07T04:36:14.812Z,14.68
2022-09-07T04:36:46.404Z,13.82
2022-09-07T04:37:18.641Z,15.25
2022-09-07T04:37:50.260Z,15.30
2022-09-07T04:38:21.778Z,15.93
2022-09-07T04:39:00.769Z,15.13
2022-09-07T04:39:32.369Z,16.17
2022-09-07T04:40:05.495Z,16.42
2022-09-07T04:40:37.282Z,16.65
2022-09-07T04:41:18.818Z,14.48
2022-09-07T04:41:52.704Z,15.75
2022-09-07T04:42:24.235Z,15.55
2022-09-07T04:42:55.779Z,15.93
2022-09-07T04:43:28.709Z,17.77
2022-09-07T04:44:01.632Z,16.75
2022-09-07T04:44:33.212Z,15.52
2022-09-07T04:45:05.465Z,16.80
2022-09-07T04:45:37.611Z,17.88
2022-09-07T04:46:19.603Z,16.33
2022-09-07T04:46:51.247Z,15.80
2022-09-07T04:47:22.882Z,16.88
2022-09-07T04:47:54.401Z,15.63
2022-09-07T04:48:25.967Z,16.73
2022-09-07T04:48:59.116Z,17.75
2022-09-07T04:49:30.647Z,17.90
2022-09-07T04:50:02.566Z,16.50
2022-09-07T04:50:34.588Z,17.77
2022-09-07T04:51:07.956Z,17.55
2022-09-07T04:51:42.535Z,17.55
2022-09-07T04:52:14.156Z,16.95
2022-09-07T04:52:45.778Z,17.92
2022-09-07T04:53:17.694Z,17.33
2022-09-07T04:53:50.569Z,17.77
2022-09-07T04:54:22.367Z,16.67
2022-09-07T04:54:53.953Z,16.90
2022-09-07T04:55:25.853Z,18.67
2022-09-07T04:56:00.471Z,17.88
2022-09-07T04:56:32.649Z,19.05
2022-09-07T04:57:04.441Z,18.02
2022-09-07T04:57:36.032Z,19.95
2022-09-07T04:58:07.634Z,18.52
2022-09-07T04:58:39.176Z,17.80
2022-09-07T04:59:10.745Z,18.70
2022-09-07T04:59:42.373Z,18.85
2022-09-07T05:00:14.779Z,18.92
2022-09-07T05:00:46.435Z,17.65
2022-09-07T05:01:20.588Z,18.38
2022-09-07T05:01:52.225Z,19.23
2022-09-07T05:02:23.841Z,17.25
2022-09-07T05:02:55.467Z,18.88
2022-09-07T05:03:29.108Z,17.40
2022-09-07T05:04:01.538Z,17.70
2022-09-07T05:04:35.784Z,16.98
2022-09-07T05:05:07.971Z,17.05
2022-09-07T05:05:39.690Z,17.02
2022-09-07T05:06:11.634Z,17.80
2022-09-07T05:06:43.212Z,17.45
2022-09-07T05:07:14.759Z,20.17
2022-09-07T05:07:46.408Z,18.25
2022-09-07T05:08:18.049Z,16.92
2022-09-07T05:08:52.125Z,18.60
2022-09-07T05:09:23.631Z,18.55
2022-09-07T05:09:55.243Z,18.10
2022-09-07T05:10:26.744Z,18.02
2022-09-07T05:10:58.293Z,18.02
2022-09-07T05:11:30.258Z,18.52
2022-09-07T05:12:02.167Z,19.10
2022-09-07T05:12:33.691Z,18.42
2022-09-07T05:13:05.339Z,18.23
2022-09-07T05:13:37.202Z,18.45
2022-09-07T05:14:10.055Z,17.85
2022-09-07T05:14:41.725Z,17.55
2022-09-07T05:15:13.467Z,17.92
2022-09-07T05:15:45.158Z,17.75
2022-09-07T05:16:19.567Z,16.80
2022-09-07T05:16:51.306Z,17.83
2022-09-07T05:17:23.054Z,18.23
2022-09-07T05:17:54.603Z,17.23
2022-09-07T05:18:26.988Z,17.90
2022-09-07T05:19:01.418Z,18.85
2022-09-07T05:19:33.325Z,18.00
2022-09-07T05:20:05.663Z,18.05
2022-09-07T05:20:37.761Z,18.70
2022-09-07T05:21:20.520Z,18.45
2022-09-07T05:21:52.139Z,17.55
2022-09-07T05:22:25.210Z,18.58
2022-09-07T05:22:59.665Z,17.77
2022-09-07T05:23:31.386Z,18.13
2022-09-07T05:24:04.483Z,18.42
2022-09-07T05:24:36.860Z,18.42
2022-09-07T05:25:09.616Z,18.58
2022-09-07T05:25:45.497Z,17.90
2022-09-07T05:26:17.868Z,18.67
2022-09-07T05:26:49.447Z,18.27
2022-09-07T05:27:21.008Z,17.63
2022-09-07T05:27:52.668Z,17.08
2022-09-07T05:28:24.231Z,17.73
2022-09-07T05:30:04.322Z,18.58
2022-09-07T05:31:29.124Z,18.13
2022-09-07T05:32:00.910Z,16.65
2022-09-07T05:32:32.610Z,17.80
2022-09-07T05:33:04.286Z,19.23
2022-09-07T05:34:59.257Z,17.30
2022-09-07T05:35:31.479Z,16.70
2022-09-07T05:36:04.022Z,18.08
2022-09-07T05:36:36.008Z,17.88
2022-09-07T05:37:07.666Z,17.77
2022-09-07T05:37:39.347Z,19.95
2022-09-07T05:38:10.887Z,17.52
2022-09-07T05:38:42.944Z,17.20
2022-09-07T05:39:14.486Z,18.70
2022-09-07T05:39:46.137Z,17.33
2022-09-07T05:40:18.252Z,17.55
2022-09-07T05:40:49.913Z,17.13
2022-09-07T05:41:25.884Z,17.98
2022-09-07T05:41:57.428Z,17.25
2022-09-07T05:42:29.011Z,17.50
2022-09-07T05:43:00.534Z,17.08
2022-09-07T05:43:32.060Z,17.42
2022-09-07T05:44:56.105Z,17.38
2022-09-07T05:45:27.833Z,16.60
2022-09-07T05:45:59.479Z,18.60
2022-09-07T05:46:31.192Z,17.58
2022-09-07T05:47:02.743Z,18.35
2022-09-07T05:47:34.391Z,17.83
2022-09-07T05:48:05.961Z,17.40
2022-09-07T05:48:37.643Z,18.13
2022-09-07T05:49:09.649Z,16.67
2022-09-07T05:49:41.204Z,17.48
2022-09-07T05:50:12.724Z,17.70
2022-09-07T05:50:51.722Z,18.33
2022-09-07T05:51:23.360Z,17.02
2022-09-07T05:51:54.944Z,17.60
2022-09-07T05:52:26.475Z,16.17
2022-09-07T05:52:59.074Z,17.67
2022-09-07T05:53:30.867Z,17.15
2022-09-07T05:54:02.384Z,18.13
2022-09-07T05:54:33.993Z,17.48
2022-09-07T05:55:28.273Z,17.08
2022-09-07T05:56:05.147Z,16.80
2022-09-07T05:56:38.659Z,17.60
2022-09-07T05:57:11.751Z,18.02
2022-09-07T05:57:43.354Z,17.42
2022-09-07T05:58:14.902Z,17.10
2022-09-07T05:58:49.268Z,17.25
2022-09-07T05:59:20.790Z,17.88
2022-09-07T05:59:52.320Z,18.17
2022-09-07T06:00:23.834Z,18.00
2022-09-07T06:01:05.680Z,17.60
2022-09-07T06:01:37.571Z,18.25
2022-09-07T06:02:19.052Z,18.27
2022-09-07T06:02:50.794Z,16.42
2022-09-07T06:03:22.521Z,18.15
2022-09-07T06:03:54.108Z,16.73
2022-09-07T06:04:25.862Z,16.02
2022-09-07T06:04:57.394Z,17.02
2022-09-07T06:05:28.933Z,17.15
2022-09-07T06:06:11.650Z,18.60
2022-09-07T06:06:47.817Z,17.13
2022-09-07T06:07:30.725Z,17.88
2022-09-07T06:08:02.790Z,17.38
2022-09-07T06:08:35.922Z,18.00
2022-09-07T06:09:08.000Z,17.67
2022-09-07T06:10:44.201Z,17.33
2022-09-07T06:11:18.605Z,17.75
2022-09-07T06:11:50.437Z,19.38
2022-09-07T06:12:21.974Z,15.90
2022-09-07T06:12:53.674Z,18.35
2022-09-07T06:13:25.625Z,16.90
2022-09-07T06:13:57.360Z,18.13
2022-09-07T06:14:28.877Z,18.08
2022-09-07T06:15:01.587Z,17.85
2022-09-07T06:15:34.064Z,17.45
2022-09-07T06:16:07.507Z,18.35
2022-09-07T06:16:39.196Z,18.38
2022-09-07T06:17:10.771Z,16.80
2022-09-07T06:17:42.272Z,17.35
2022-09-07T06:18:13.839Z,18.33
2022-09-07T06:18:48.356Z,18.52
2022-09-07T06:19:19.887Z,16.95
2022-09-07T06:19:51.587Z,18.58
2022-09-07T06:20:23.085Z,19.00
2022-09-07T06:20:54.646Z,17.70
2022-09-07T06:21:26.165Z,18.10
2022-09-07T06:21:57.787Z,17.38
2022-09-07T06:22:31.229Z,18.80
2022-09-07T06:23:03.043Z,17.75
2022-09-07T06:23:35.621Z,16.90
2022-09-07T06:24:07.481Z,16.15
2022-09-07T06:24:39.007Z,17.17
2022-09-07T06:25:10.637Z,17.40
2022-09-07T06:25:48.699Z,17.00
2022-09-07T06:26:20.388Z,16.85
2022-09-07T06:26:52.252Z,17.95
2022-09-07T06:27:23.918Z,17.00
2022-09-07T06:27:55.482Z,17.10
2022-09-07T06:28:37.680Z,17.58
2022-09-07T06:29:10.105Z,16.23
2022-09-07T06:29:41.661Z,17.45
2022-09-07T06:30:13.403Z,18.58
2022-09-07T06:30:45.001Z,19.05
2022-09-07T06:31:18.630Z,16.95
2022-09-07T06:33:21.979Z,17.98
2022-09-07T06:33:54.901Z,19.42
2022-09-07T06:34:26.464Z,18.73
2022-09-07T06:34:57.980Z,18.08
2022-09-07T06:35:29.492Z,18.38
2022-09-07T06:36:03.670Z,18.23
2022-09-07T06:36:35.202Z,19.05
2022-09-07T06:37:06.763Z,19.85
2022-09-07T06:37:38.724Z,18.25
2022-09-07T06:38:10.509Z,18.58
2022-09-07T06:38:42.814Z,18.73
2022-09-07T06:39:14.698Z,18.02
2022-09-07T06:39:46.337Z,17.42
2022-09-07T06:40:18.022Z,18.25
2022-09-07T06:40:49.600Z,17.67
2022-09-07T06:42:14.063Z,18.50
2022-09-07T06:42:48.620Z,18.67
2022-09-07T06:43:21.064Z,17.17
2022-09-07T06:43:53.965Z,18.05
2022-09-07T06:44:25.573Z,18.48
2022-09-07T06:44:57.490Z,17.13
2022-09-07T06:45:30.337Z,16.60
2022-09-07T06:47:32.941Z,16.75
2022-09-07T06:48:04.628Z,17.13
2022-09-07T06:48:36.548Z,17.05
2022-09-07T06:49:08.149Z,15.77
2022-09-07T06:49:39.694Z,16.98
2022-09-07T06:50:12.432Z,16.50
2022-09-07T06:50:43.973Z,14.60
2022-09-07T06:51:20.950Z,16.23
2022-09-07T06:51:52.610Z,14.65
2022-09-07T06:52:24.302Z,14.75
2022-09-07T06:53:48.830Z,15.65
2022-09-07T06:55:12.077Z,14.20
2022-09-07T06:55:44.777Z,14.50
2022-09-07T06:56:18.030Z,14.57
2022-09-07T06:56:49.633Z,14.38
2022-09-07T06:57:21.249Z,13.65
2022-09-07T06:57:53.407Z,14.50
2022-09-07T06:58:25.881Z,14.65
2022-09-07T06:58:57.915Z,14.38
2022-09-07T06:59:29.492Z,13.98
2022-09-07T07:00:01.043Z,14.15
2022-09-07T07:00:32.608Z,14.32
2022-09-07T07:01:10.597Z,13.98
2022-09-07T07:01:42.212Z,13.70
2022-09-07T07:02:15.001Z,13.68
2022-09-07T07:02:46.567Z,13.68
2022-09-07T07:03:18.478Z,14.60
2022-09-07T07:03:51.244Z,14.20
2022-09-07T07:04:23.092Z,12.63
2022-09-07T07:04:54.728Z,14.35
2022-09-07T07:05:26.267Z,14.27
2022-09-07T07:05:57.773Z,14.45
2022-09-07T07:06:39.008Z,14.18
2022-09-07T07:07:12.415Z,13.68
2022-09-07T07:07:43.975Z,12.88
2022-09-07T07:08:15.740Z,14.10
2022-09-07T07:08:47.759Z,13.80
2022-09-07T07:09:19.450Z,14.25
2022-09-07T07:09:51.000Z,12.90
2022-09-07T07:10:24.983Z,13.75
2022-09-07T07:11:01.212Z,14.35
2022-09-07T07:11:32.970Z,14.25
2022-09-07T07:12:04.560Z,13.02
2022-09-07T07:13:06.859Z,15.40
2022-09-07T07:13:39.585Z,12.30
2022-09-07T07:14:15.328Z,14.50
2022-09-07T07:14:46.881Z,14.25
2022-09-07T07:15:18.795Z,14.98
2022-09-07T07:15:51.468Z,13.98
2022-09-07T07:16:23.234Z,13.82
2022-09-07T07:16:54.812Z,13.80
2022-09-07T07:17:27.265Z,14.25
2022-09-07T07:18:05.459Z,14.32
2022-09-07T07:18:45.818Z,14.23
2022-09-07T07:19:17.363Z,13.35
2022-09-07T07:19:48.899Z,13.50
2022-09-07T07:20:21.204Z,12.73
2022-09-07T07:20:53.006Z,14.20
2022-09-07T07:21:24.797Z,12.75
2022-09-07T07:22:52.223Z,12.73
2022-09-07T07:23:24.009Z,12.95
2022-09-07T07:23:55.568Z,12.75
2022-09-07T07:24:27.121Z,13.13
2022-09-07T07:24:59.319Z,13.77
2022-09-07T07:25:31.332Z,13.52
2022-09-07T07:26:17.112Z,13.35
2022-09-07T07:26:48.743Z,14.07
2022-09-07T07:27:22.013Z,15.93
2022-09-07T07:27:53.904Z,13.80
2022-09-07T07:29:19.433Z,13.57
2022-09-07T07:29:52.437Z,12.48
2022-09-07T07:30:23.968Z,14.15
2022-09-07T07:30:59.670Z,12.80
2022-09-07T07:31:33.204Z,12.35
2022-09-07T07:32:05.331Z,13.60
2022-09-07T07:32:37.906Z,12.50
2022-09-07T07:33:10.102Z,13.25
2022-09-07T07:33:41.765Z,11.85
2022-09-07T07:34:13.389Z,12.95
2022-09-07T07:34:45.035Z,12.90
2022-09-07T07:35:16.685Z,13.18
2022-09-07T07:35:48.208Z,13.05
2022-09-07T07:36:24.292Z,11.38
2022-09-07T07:36:55.819Z,12.43
2022-09-07T07:37:28.344Z,12.55
2022-09-07T07:39:01.453Z,12.88
2022-09-07T07:40:30.357Z,13.27
2022-09-07T07:41:56.497Z,12.80
2022-09-07T07:42:30.385Z,12.73
2022-09-07T07:43:01.883Z,13.60